Time;durP1;ratioP1;P1;durP2;ratioP2;P2;SDS_P1;SDS_P2;PMS_P1;PMS_P2;Temp;Humidity;BMP_temperature;BMP_pressure;BME280_temperature;BME280_humidity;BME280_pressure;Samples;Min_cycle;Max_cycle;Signal;HPM_P1;HPM_P2
2024/01/29 00:00:51;;;;;;;7.07;5.20;;;;;;;;;;4956288;28;20023;-72
2024/01/29 00:03:17;;;;;;;7.53;5.25;;;;;;;;;;4956542;29;20385;-72
2024/01/29 00:05:42;;;;;;;6.88;5.15;;;;;;;;;;4956216;28;20075;-73
2024/01/29 00:08:08;;;;;;;8.40;5.13;;;;;;;;;;4956222;28;20042;-73
2024/01/29 00:10:33;;;;;;;6.55;5.03;;;;;;;;;;4956161;28;20066;-73
2024/01/29 00:12:59;;;;;;;8.90;5.75;;;;;;;;;;4956053;29;20038;-74
2024/01/29 00:15:24;;;;;;;6.53;4.82;;;;;;;;;;4956314;28;20066;-73
2024/01/29 00:17:50;;;;;;;7.82;5.10;;;;;;;;;;4956054;29;20062;-73
2024/01/29 00:20:15;;;;;;;8.30;5.65;;;;;;;;;;4956241;28;20031;-73
2024/01/29 00:22:41;;;;;;;8.15;5.10;;;;;;;;;;4956203;29;20469;-73
2024/01/29 00:25:07;;;;;;;6.22;4.85;;;;;;;;;;4955948;29;20572;-72
2024/01/29 00:27:33;;;;;;;8.25;5.15;;;;;;;;;;4955815;28;20105;-73
2024/01/29 00:30:01;;;;;;;6.70;4.80;;;;;;;;;;4954780;29;20067;-73
2024/01/29 00:32:27;;;;;;;7.72;5.25;;;;;;;;;;4955694;28;20038;-73
2024/01/29 00:34:53;;;;;;;6.40;5.10;;;;;;;;;;4955460;28;20043;-73
2024/01/29 00:37:20;;;;;;;6.55;4.88;;;;;;;;;;4955728;28;20101;-73
2024/01/29 00:39:45;;;;;;;8.50;4.93;;;;;;;;;;4955676;28;20027;-73
2024/01/29 00:42:11;;;;;;;7.25;5.00;;;;;;;;;;4955890;28;20030;-73
2024/01/29 00:44:37;;;;;;;7.50;4.72;;;;;;;;;;4955547;28;20030;-73
2024/01/29 00:47:03;;;;;;;7.40;4.65;;;;;;;;;;4955110;28;20039;-73
2024/01/29 00:49:31;;;;;;;8.98;5.40;;;;;;;;;;4955324;28;20042;-71
2024/01/29 00:51:57;;;;;;;8.45;5.20;;;;;;;;;;4955314;29;20031;-71
2024/01/29 00:54:23;;;;;;;6.07;4.60;;;;;;;;;;4955382;28;20027;-72
2024/01/29 00:56:49;;;;;;;10.70;4.90;;;;;;;;;;4955574;28;20024;-71
2024/01/29 00:59:15;;;;;;;14.07;5.60;;;;;;;;;;4955257;28;20038;-72
2024/01/29 01:01:40;;;;;;;8.73;5.00;;;;;;;;;;4955165;28;20035;-71
2024/01/29 01:04:06;;;;;;;8.02;4.85;;;;;;;;;;4955159;28;20024;-72
2024/01/29 01:06:32;;;;;;;6.97;4.88;;;;;;;;;;4955152;28;20424;-72
2024/01/29 01:08:57;;;;;;;6.75;4.40;;;;;;;;;;4955051;28;20027;-72
2024/01/29 01:11:23;;;;;;;7.28;5.10;;;;;;;;;;4954904;29;20027;-72
2024/01/29 01:13:49;;;;;;;6.72;4.57;;;;;;;;;;4955010;29;20027;-72
2024/01/29 01:16:15;;;;;;;6.35;4.88;;;;;;;;;;4954987;29;20502;-72
2024/01/29 01:18:40;;;;;;;6.43;4.88;;;;;;;;;;4953661;29;20055;-72
2024/01/29 01:21:06;;;;;;;5.85;4.40;;;;;;;;;;4955073;29;20039;-72
2024/01/29 01:23:32;;;;;;;7.10;4.60;;;;;;;;;;4954850;28;20039;-72
2024/01/29 01:25:57;;;;;;;7.00;5.00;;;;;;;;;;4955057;28;20475;-72
2024/01/29 01:28:23;;;;;;;8.85;5.15;;;;;;;;;;4954783;28;20519;-72
2024/01/29 01:30:48;;;;;;;8.07;4.90;;;;;;;;;;4954670;29;20154;-72
2024/01/29 01:33:14;;;;;;;6.80;4.60;;;;;;;;;;4954668;28;20031;-73
2024/01/29 01:35:39;;;;;;;6.80;4.70;;;;;;;;;;4954291;28;20408;-73
2024/01/29 01:38:05;;;;;;;7.30;4.72;;;;;;;;;;4972145;28;20431;-72
2024/01/29 01:40:31;;;;;;;7.28;4.90;;;;;;;;;;4972066;28;20046;-72
2024/01/29 01:42:56;;;;;;;7.40;5.07;;;;;;;;;;4972867;28;20023;-73
2024/01/29 01:45:22;;;;;;;7.22;5.53;;;;;;;;;;4972697;28;20109;-72
2024/01/29 01:47:47;;;;;;;6.88;5.10;;;;;;;;;;4971806;28;20153;-72
2024/01/29 01:50:14;;;;;;;9.65;5.07;;;;;;;;;;4971632;28;20620;-73
2024/01/29 01:52:40;;;;;;;6.60;5.00;;;;;;;;;;4972742;28;20394;-73
2024/01/29 01:55:06;;;;;;;6.38;4.90;;;;;;;;;;4973083;28;20033;-72
2024/01/29 01:57:32;;;;;;;8.05;5.05;;;;;;;;;;4972071;28;20106;-73
2024/01/29 01:59:58;;;;;;;7.40;4.93;;;;;;;;;;4972039;28;20480;-73
2024/01/29 02:02:24;;;;;;;6.15;4.72;;;;;;;;;;4972759;28;20023;-71
2024/01/29 02:04:50;;;;;;;8.10;5.20;;;;;;;;;;4973002;28;20432;-71
2024/01/29 02:07:15;;;;;;;7.50;5.20;;;;;;;;;;4972529;28;20102;-73
2024/01/29 02:09:41;;;;;;;5.75;4.60;;;;;;;;;;4973251;28;20379;-73
2024/01/29 02:12:09;;;;;;;6.97;4.78;;;;;;;;;;4973478;28;20058;-73
2024/01/29 02:14:35;;;;;;;6.78;4.68;;;;;;;;;;4973768;28;20443;-74
2024/01/29 02:17:00;;;;;;;7.65;5.53;;;;;;;;;;4973768;28;20027;-73
2024/01/29 02:19:26;;;;;;;5.68;4.63;;;;;;;;;;4973511;28;20019;-73
2024/01/29 02:21:53;;;;;;;6.55;4.82;;;;;;;;;;4973712;28;20031;-74
2024/01/29 02:24:19;;;;;;;6.85;4.93;;;;;;;;;;4973448;28;20487;-73
2024/01/29 02:26:47;;;;;;;6.82;4.55;;;;;;;;;;4973348;28;20037;-74
2024/01/29 02:29:13;;;;;;;6.53;4.72;;;;;;;;;;4973453;28;20023;-73
2024/01/29 02:31:38;;;;;;;9.32;5.10;;;;;;;;;;4973338;28;20078;-75
2024/01/29 02:34:04;;;;;;;7.82;5.32;;;;;;;;;;4973203;28;20027;-76
2024/01/29 02:36:29;;;;;;;7.28;4.78;;;;;;;;;;4973339;28;20530;-73
2024/01/29 02:38:55;;;;;;;7.93;5.07;;;;;;;;;;4973241;28;20055;-72
2024/01/29 02:41:20;;;;;;;6.78;4.80;;;;;;;;;;4973295;28;20050;-73
2024/01/29 02:43:46;;;;;;;6.40;4.78;;;;;;;;;;4973246;28;20038;-74
2024/01/29 02:46:11;;;;;;;8.00;4.78;;;;;;;;;;4972072;28;20035;-74
2024/01/29 02:48:39;;;;;;;6.40;5.03;;;;;;;;;;4969409;28;20114;-75
2024/01/29 02:51:06;;;;;;;7.32;4.70;;;;;;;;;;4964551;28;20074;-73
2024/01/29 02:53:31;;;;;;;8.05;4.90;;;;;;;;;;4951019;28;20039;-73
2024/01/29 02:55:57;;;;;;;7.25;4.85;;;;;;;;;;4953814;28;20119;-73
2024/01/29 02:58:22;;;;;;;7.07;4.85;;;;;;;;;;4953869;29;20030;-74
2024/01/29 03:00:48;;;;;;;6.85;4.60;;;;;;;;;;4952732;28;20031;-74
2024/01/29 03:03:14;;;;;;;7.53;4.78;;;;;;;;;;4953225;28;20027;-73
2024/01/29 03:05:39;;;;;;;7.15;5.20;;;;;;;;;;4953283;28;20038;-73
2024/01/29 03:08:06;;;;;;;10.55;4.95;;;;;;;;;;4953713;28;20106;-73
2024/01/29 03:10:32;;;;;;;6.43;4.88;;;;;;;;;;4955491;28;20282;-73
2024/01/29 03:12:58;;;;;;;9.38;5.20;;;;;;;;;;4957398;28;20031;-73
2024/01/29 03:15:24;;;;;;;8.05;5.07;;;;;;;;;;4957145;29;20482;-73
2024/01/29 03:17:50;;;;;;;7.60;5.03;;;;;;;;;;4957071;28;20028;-74
2024/01/29 03:20:16;;;;;;;9.45;4.90;;;;;;;;;;4955786;29;20027;-73
2024/01/29 03:22:41;;;;;;;7.25;4.80;;;;;;;;;;4957286;28;20023;-74
2024/01/29 03:25:07;;;;;;;6.30;4.78;;;;;;;;;;4957214;28;20032;-73
2024/01/29 03:27:33;;;;;;;9.18;5.10;;;;;;;;;;4956948;29;20396;-73
2024/01/29 03:29:58;;;;;;;7.80;4.78;;;;;;;;;;4956867;28;20027;-72
2024/01/29 03:32:24;;;;;;;6.63;5.38;;;;;;;;;;4956811;28;20057;-73
2024/01/29 03:34:50;;;;;;;7.50;5.53;;;;;;;;;;4956599;29;20050;-71
2024/01/29 03:37:15;;;;;;;7.80;5.40;;;;;;;;;;4957008;28;20106;-72
2024/01/29 03:39:41;;;;;;;7.00;4.82;;;;;;;;;;4956681;28;20505;-73
2024/01/29 03:42:06;;;;;;;7.47;5.00;;;;;;;;;;4957226;28;20042;-72
2024/01/29 03:44:32;;;;;;;6.45;4.85;;;;;;;;;;4956637;29;20450;-72
2024/01/29 03:46:57;;;;;;;9.00;5.05;;;;;;;;;;4956667;28;20027;-72
2024/01/29 03:49:23;;;;;;;6.53;4.95;;;;;;;;;;4956560;29;20054;-72
2024/01/29 03:51:48;;;;;;;7.93;5.60;;;;;;;;;;4956354;28;20027;-74
2024/01/29 03:54:14;;;;;;;9.20;5.35;;;;;;;;;;4956453;29;20107;-72
2024/01/29 03:56:40;;;;;;;7.40;4.95;;;;;;;;;;4956385;29;20472;-71
2024/01/29 03:59:10;;;;;;;6.80;4.97;;;;;;;;;;4956673;28;20038;-74
2024/01/29 04:01:37;;;;;;;6.07;4.45;;;;;;;;;;4956341;29;20388;-74
2024/01/29 04:04:03;;;;;;;6.85;4.75;;;;;;;;;;4956282;28;20027;-73
2024/01/29 04:06:29;;;;;;;6.38;4.45;;;;;;;;;;4956265;28;20496;-73
2024/01/29 04:08:54;;;;;;;7.85;5.15;;;;;;;;;;4956428;28;20055;-74
2024/01/29 04:11:20;;;;;;;6.57;5.13;;;;;;;;;;4956118;29;20507;-73
2024/01/29 04:13:45;;;;;;;7.65;4.63;;;;;;;;;;4956001;28;20035;-74
2024/01/29 04:16:12;;;;;;;6.70;5.30;;;;;;;;;;4956010;28;20069;-74
2024/01/29 04:18:40;;;;;;;6.10;4.80;;;;;;;;;;4956021;28;20567;-73
2024/01/29 04:21:06;;;;;;;6.68;5.18;;;;;;;;;;4955196;28;20494;-73
2024/01/29 04:23:36;;;;;;;6.70;4.85;;;;;;;;;;4955724;28;20098;-73
2024/01/29 04:26:02;;;;;;;7.28;4.72;;;;;;;;;;4956160;28;20031;-73
2024/01/29 04:28:27;;;;;;;10.77;5.18;;;;;;;;;;4955873;28;20428;-73
2024/01/29 04:30:53;;;;;;;7.00;4.97;;;;;;;;;;4955766;29;20026;-73
2024/01/29 04:33:19;;;;;;;9.13;5.30;;;;;;;;;;4955639;29;20031;-73
2024/01/29 04:35:44;;;;;;;6.85;5.00;;;;;;;;;;4955493;28;20047;-73
2024/01/29 04:38:10;;;;;;;7.03;5.05;;;;;;;;;;4955685;29;20030;-73
2024/01/29 04:40:39;;;;;;;6.60;5.45;;;;;;;;;;4955627;28;20027;-73
2024/01/29 04:43:05;;;;;;;5.85;4.60;;;;;;;;;;4954234;29;20031;-73
2024/01/29 04:45:30;;;;;;;7.18;5.05;;;;;;;;;;4955516;28;20035;-73
2024/01/29 04:47:56;;;;;;;6.47;5.07;;;;;;;;;;4955480;28;20071;-73
2024/01/29 04:50:21;;;;;;;8.27;5.30;;;;;;;;;;4955411;29;20027;-73
2024/01/29 04:52:48;;;;;;;6.53;4.90;;;;;;;;;;4955353;29;20066;-73
2024/01/29 04:55:14;;;;;;;7.30;5.35;;;;;;;;;;4955553;28;20058;-73
2024/01/29 04:57:41;;;;;;;6.35;4.80;;;;;;;;;;4955294;28;20034;-73
2024/01/29 05:00:08;;;;;;;6.60;5.03;;;;;;;;;;4955269;28;20026;-74
2024/01/29 05:02:34;;;;;;;9.00;5.50;;;;;;;;;;4955141;28;20551;-73
2024/01/29 05:05:00;;;;;;;5.75;4.85;;;;;;;;;;4955168;28;20158;-73
2024/01/29 05:07:25;;;;;;;7.13;4.95;;;;;;;;;;4955144;28;20031;-72
2024/01/29 05:09:51;;;;;;;7.88;5.53;;;;;;;;;;4955039;29;20026;-72
2024/01/29 05:12:16;;;;;;;8.63;5.10;;;;;;;;;;4954894;29;20027;-72
2024/01/29 05:14:42;;;;;;;7.53;5.10;;;;;;;;;;4954952;29;20472;-72
2024/01/29 05:17:09;;;;;;;8.13;5.03;;;;;;;;;;4954983;28;20035;-72
2024/01/29 05:19:35;;;;;;;6.95;5.18;;;;;;;;;;4954934;28;20027;-72
2024/01/29 05:22:01;;;;;;;7.75;5.40;;;;;;;;;;4954832;29;20034;-72
2024/01/29 05:24:27;;;;;;;8.57;5.28;;;;;;;;;;4955056;28;20034;-72
2024/01/29 05:26:53;;;;;;;8.68;5.20;;;;;;;;;;4955092;28;20436;-73
2024/01/29 05:29:18;;;;;;;7.53;5.43;;;;;;;;;;4954984;29;20058;-73
2024/01/29 05:31:44;;;;;;;6.88;5.32;;;;;;;;;;4954828;29;20034;-73
2024/01/29 05:34:10;;;;;;;8.55;5.78;;;;;;;;;;4954242;28;20380;-73
2024/01/29 05:36:35;;;;;;;7.88;5.07;;;;;;;;;;4954594;29;20024;-73
2024/01/29 05:39:01;;;;;;;8.15;5.07;;;;;;;;;;4954557;28;20035;-73
2024/01/29 05:41:26;;;;;;;8.38;5.30;;;;;;;;;;4954526;28;20023;-73
2024/01/29 05:43:52;;;;;;;6.75;5.40;;;;;;;;;;4954548;29;20035;-73
2024/01/29 05:46:17;;;;;;;7.90;5.68;;;;;;;;;;4954552;28;20036;-73
2024/01/29 05:48:43;;;;;;;6.88;5.45;;;;;;;;;;4954488;29;20078;-72
2024/01/29 05:51:08;;;;;;;7.38;5.30;;;;;;;;;;4954440;28;20388;-73
2024/01/29 05:53:34;;;;;;;8.15;5.43;;;;;;;;;;4954333;28;20035;-73
2024/01/29 05:56:00;;;;;;;7.97;5.75;;;;;;;;;;4954346;28;20027;-73
2024/01/29 05:58:27;;;;;;;7.20;5.32;;;;;;;;;;4954327;29;20078;-73
2024/01/29 06:00:53;;;;;;;8.82;5.47;;;;;;;;;;4954614;29;20023;-73
2024/01/29 06:03:19;;;;;;;8.02;6.00;;;;;;;;;;4954587;28;20502;-73
2024/01/29 06:05:44;;;;;;;7.10;5.65;;;;;;;;;;4954594;28;20090;-72
2024/01/29 06:08:10;;;;;;;6.97;5.43;;;;;;;;;;4954261;29;20023;-72
2024/01/29 06:10:35;;;;;;;8.13;5.95;;;;;;;;;;4954275;28;20025;-73
2024/01/29 06:13:01;;;;;;;8.00;5.32;;;;;;;;;;4954464;28;20222;-73
2024/01/29 06:15:27;;;;;;;6.97;5.55;;;;;;;;;;4954223;28;20039;-73
2024/01/29 06:17:52;;;;;;;10.55;6.20;;;;;;;;;;4954248;28;20023;-72
2024/01/29 06:20:18;;;;;;;7.53;5.47;;;;;;;;;;4954243;28;20034;-73
2024/01/29 06:22:43;;;;;;;7.85;5.60;;;;;;;;;;4954190;28;20055;-73
2024/01/29 06:25:09;;;;;;;9.13;5.53;;;;;;;;;;4954095;29;20023;-72
2024/01/29 06:27:35;;;;;;;9.27;5.57;;;;;;;;;;4954160;28;20187;-72
2024/01/29 06:30:00;;;;;;;7.63;5.30;;;;;;;;;;4954632;29;20471;-73
2024/01/29 06:32:26;;;;;;;9.05;5.95;;;;;;;;;;4953909;29;20059;-72
2024/01/29 06:34:56;;;;;;;7.10;5.40;;;;;;;;;;4953900;28;20043;-72
2024/01/29 06:37:22;;;;;;;6.68;5.18;;;;;;;;;;4954332;29;20135;-72
2024/01/29 06:39:48;;;;;;;7.03;4.97;;;;;;;;;;4954045;28;20106;-72
2024/01/29 06:42:13;;;;;;;6.90;5.55;;;;;;;;;;4954007;29;20023;-72
2024/01/29 06:44:41;;;;;;;8.18;5.60;;;;;;;;;;4954513;28;20035;-72
2024/01/29 06:47:06;;;;;;;8.07;5.80;;;;;;;;;;4957674;28;20491;-73
2024/01/29 06:49:32;;;;;;;8.23;5.97;;;;;;;;;;4957660;29;20032;-73
2024/01/29 06:51:57;;;;;;;7.68;5.57;;;;;;;;;;4957593;28;20032;-73
2024/01/29 06:54:24;;;;;;;7.75;5.75;;;;;;;;;;4956294;29;20034;-72
2024/01/29 06:56:51;;;;;;;7.70;5.65;;;;;;;;;;4957508;28;20110;-72
2024/01/29 06:59:16;;;;;;;9.05;5.78;;;;;;;;;;4956214;29;20484;-72
2024/01/29 07:01:42;;;;;;;6.75;5.70;;;;;;;;;;4956102;29;20131;-73
2024/01/29 07:04:08;;;;;;;8.98;5.70;;;;;;;;;;4957342;29;20054;-72
2024/01/29 07:06:33;;;;;;;8.50;5.60;;;;;;;;;;4957439;28;20110;-72
2024/01/29 07:08:59;;;;;;;8.13;5.65;;;;;;;;;;4956007;29;20500;-73
2024/01/29 07:11:24;;;;;;;9.57;6.00;;;;;;;;;;4957263;29;20028;-73
2024/01/29 07:13:50;;;;;;;7.90;5.72;;;;;;;;;;4957103;29;20035;-72
2024/01/29 07:16:15;;;;;;;7.82;5.85;;;;;;;;;;4957429;28;20495;-72
2024/01/29 07:18:41;;;;;;;9.20;6.00;;;;;;;;;;4957063;29;20086;-72
2024/01/29 07:21:09;;;;;;;9.52;6.30;;;;;;;;;;4957067;28;20543;-72
2024/01/29 07:23:35;;;;;;;7.57;5.50;;;;;;;;;;4956940;28;20114;-71
2024/01/29 07:26:00;;;;;;;9.48;5.78;;;;;;;;;;4956962;29;20069;-72
2024/01/29 07:28:26;;;;;;;8.02;6.00;;;;;;;;;;4955751;29;20055;-71
2024/01/29 07:30:51;;;;;;;8.90;5.72;;;;;;;;;;4956870;29;20488;-71
2024/01/29 07:33:17;;;;;;;8.25;6.45;;;;;;;;;;4956738;28;20035;-71
2024/01/29 07:35:42;;;;;;;7.85;6.18;;;;;;;;;;4956614;28;20043;-74
2024/01/29 07:38:08;;;;;;;8.20;5.88;;;;;;;;;;4957098;28;20443;-72
2024/01/29 07:40:33;;;;;;;7.57;5.50;;;;;;;;;;4956748;28;20499;-72
2024/01/29 07:42:59;;;;;;;9.02;6.13;;;;;;;;;;4956684;29;20106;-72
2024/01/29 07:45:28;;;;;;;7.63;5.55;;;;;;;;;;4955354;29;20033;-70
2024/01/29 07:47:53;;;;;;;10.18;5.65;;;;;;;;;;4956570;28;20028;-70
2024/01/29 07:50:19;;;;;;;7.22;5.70;;;;;;;;;;4956488;28;20027;-71
2024/01/29 07:52:45;;;;;;;8.13;5.82;;;;;;;;;;4956441;28;20446;-73
2024/01/29 07:55:10;;;;;;;8.88;6.07;;;;;;;;;;4956393;29;20027;-74
2024/01/29 07:57:37;;;;;;;7.95;5.78;;;;;;;;;;4956199;29;20023;-74
2024/01/29 08:00:03;;;;;;;8.02;5.70;;;;;;;;;;4956365;28;20028;-73
2024/01/29 08:02:29;;;;;;;7.18;5.57;;;;;;;;;;4956260;28;20028;-73
2024/01/29 08:04:55;;;;;;;7.05;5.32;;;;;;;;;;4956597;28;20031;-73
2024/01/29 08:07:21;;;;;;;8.23;6.03;;;;;;;;;;4956474;28;20487;-73
2024/01/29 08:09:47;;;;;;;9.02;5.95;;;;;;;;;;4956175;28;20424;-73
2024/01/29 08:12:12;;;;;;;7.75;5.65;;;;;;;;;;4956032;28;20062;-73
2024/01/29 08:14:38;;;;;;;6.65;5.40;;;;;;;;;;4956361;28;20122;-70
2024/01/29 08:17:05;;;;;;;7.32;5.95;;;;;;;;;;4956167;28;20058;-70
2024/01/29 08:19:30;;;;;;;7.68;5.72;;;;;;;;;;4955986;28;20031;-73
2024/01/29 08:21:56;;;;;;;7.88;5.72;;;;;;;;;;4965132;28;20089;-73
2024/01/29 08:24:22;;;;;;;8.70;6.03;;;;;;;;;;4970329;28;20655;-73
2024/01/29 08:26:47;;;;;;;7.93;5.90;;;;;;;;;;4970765;28;20061;-73
2024/01/29 08:29:13;;;;;;;7.72;5.57;;;;;;;;;;4970506;28;20109;-72
2024/01/29 08:31:38;;;;;;;8.15;5.80;;;;;;;;;;4969598;28;20049;-72
2024/01/29 08:34:04;;;;;;;11.40;5.68;;;;;;;;;;4971318;28;20022;-75
2024/01/29 08:36:30;;;;;;;10.95;6.00;;;;;;;;;;4972218;28;20019;-73
2024/01/29 08:38:56;;;;;;;9.50;5.97;;;;;;;;;;4972942;28;20033;-72
2024/01/29 08:41:22;;;;;;;7.93;6.25;;;;;;;;;;4972662;28;20039;-75
2024/01/29 08:43:48;;;;;;;8.35;6.10;;;;;;;;;;4971883;28;20023;-75
2024/01/29 08:46:13;;;;;;;7.43;5.90;;;;;;;;;;4971900;28;20034;-74
2024/01/29 08:48:39;;;;;;;8.02;5.78;;;;;;;;;;4971880;28;20039;-73
2024/01/29 08:51:05;;;;;;;7.78;5.72;;;;;;;;;;4973890;28;20041;-72
2024/01/29 08:53:30;;;;;;;9.02;6.00;;;;;;;;;;4974651;28;20031;-72
2024/01/29 08:55:56;;;;;;;7.97;5.82;;;;;;;;;;4974712;28;20484;-73
2024/01/29 08:58:21;;;;;;;9.05;6.13;;;;;;;;;;4974660;28;20046;-72
2024/01/29 09:00:52;;;;;;;7.78;5.82;;;;;;;;;;4974553;28;20027;-72
2024/01/29 09:03:21;;;;;;;8.23;6.00;;;;;;;;;;4974604;28;20027;-73
2024/01/29 09:05:48;;;;;;;7.00;5.38;;;;;;;;;;4974536;28;20141;-72
2024/01/29 09:08:14;;;;;;;8.52;5.60;;;;;;;;;;4973885;28;20031;-73
2024/01/29 09:10:40;;;;;;;7.40;5.72;;;;;;;;;;4974658;28;20041;-72
2024/01/29 09:13:05;;;;;;;8.38;6.10;;;;;;;;;;4974528;28;20117;-72
2024/01/29 09:15:31;;;;;;;8.13;5.60;;;;;;;;;;4974560;28;20030;-72
2024/01/29 09:17:56;;;;;;;7.40;5.85;;;;;;;;;;4974317;28;20031;-73
2024/01/29 09:20:22;;;;;;;6.63;5.30;;;;;;;;;;4974211;28;20076;-72
2024/01/29 09:22:48;;;;;;;8.63;5.97;;;;;;;;;;4974268;28;20047;-72
2024/01/29 09:25:14;;;;;;;6.53;5.65;;;;;;;;;;4974234;28;20023;-72
2024/01/29 09:27:40;;;;;;;6.38;5.40;;;;;;;;;;4974133;28;20038;-72
2024/01/29 09:30:06;;;;;;;7.05;5.38;;;;;;;;;;4974084;28;20030;-72
2024/01/29 09:32:32;;;;;;;6.97;5.18;;;;;;;;;;4973962;28;20046;-72
2024/01/29 09:34:57;;;;;;;7.72;5.63;;;;;;;;;;4973968;28;20047;-72
2024/01/29 09:37:23;;;;;;;8.15;5.55;;;;;;;;;;4973965;28;20512;-72
2024/01/29 09:39:50;;;;;;;7.78;5.40;;;;;;;;;;4973903;28;20039;-72
2024/01/29 09:42:19;;;;;;;6.88;5.57;;;;;;;;;;4973858;28;20031;-72
2024/01/29 09:44:47;;;;;;;7.35;5.35;;;;;;;;;;4973840;28;20487;-72
2024/01/29 09:47:14;;;;;;;7.65;5.75;;;;;;;;;;4973899;28;20077;-72
2024/01/29 09:49:40;;;;;;;6.90;5.45;;;;;;;;;;4973842;28;20031;-72
2024/01/29 09:52:10;;;;;;;7.28;5.85;;;;;;;;;;4973656;28;20034;-71
2024/01/29 09:54:36;;;;;;;7.70;5.47;;;;;;;;;;4973990;28;20031;-72
2024/01/29 09:57:03;;;;;;;8.05;5.80;;;;;;;;;;4974043;28;20147;-71
2024/01/29 09:59:28;;;;;;;9.40;5.97;;;;;;;;;;4973761;28;20474;-72
2024/01/29 10:01:54;;;;;;;8.35;6.10;;;;;;;;;;4973668;28;20106;-71
2024/01/29 10:04:21;;;;;;;8.20;5.65;;;;;;;;;;4973660;28;20122;-72
2024/01/29 10:06:47;;;;;;;6.22;5.07;;;;;;;;;;4973668;28;20027;-73
2024/01/29 10:09:14;;;;;;;6.70;5.30;;;;;;;;;;4973678;28;20475;-73
2024/01/29 10:11:42;;;;;;;7.32;5.40;;;;;;;;;;4973599;28;20073;-73
2024/01/29 10:14:08;;;;;;;6.78;5.40;;;;;;;;;;4973631;28;20023;-72
2024/01/29 10:16:33;;;;;;;6.28;5.20;;;;;;;;;;4973654;28;20027;-72
2024/01/29 10:19:00;;;;;;;7.88;5.57;;;;;;;;;;4973559;28;20037;-73
2024/01/29 10:21:27;;;;;;;6.38;4.90;;;;;;;;;;4977002;28;20037;-72
2024/01/29 10:23:59;;;;;;;7.57;5.22;;;;;;;;;;4977484;28;20038;-73
2024/01/29 10:26:26;;;;;;;8.30;5.53;;;;;;;;;;4977415;28;20081;-73
2024/01/29 10:29:01;;;;;;;6.65;5.03;;;;;;;;;;4977411;28;20026;-73
2024/01/29 10:31:27;;;;;;;5.95;4.93;;;;;;;;;;4977433;28;20026;-73
2024/01/29 10:33:53;;;;;;;6.32;5.00;;;;;;;;;;4977219;28;20472;-72
2024/01/29 10:36:19;;;;;;;7.68;5.10;;;;;;;;;;4977067;28;20450;-71
2024/01/29 10:38:46;;;;;;;5.97;5.10;;;;;;;;;;4977150;28;20027;-72
2024/01/29 10:41:16;;;;;;;6.90;5.47;;;;;;;;;;4977174;28;20391;-72
2024/01/29 10:43:48;;;;;;;7.32;6.05;;;;;;;;;;4977146;28;20034;-72
2024/01/29 10:46:19;;;;;;;6.38;4.85;;;;;;;;;;4977154;28;20158;-73
2024/01/29 10:48:49;;;;;;;6.20;5.13;;;;;;;;;;4977074;28;20027;-72
2024/01/29 10:51:16;;;;;;;7.25;5.20;;;;;;;;;;4977297;28;20135;-72
2024/01/29 10:53:43;;;;;;;6.55;5.28;;;;;;;;;;4976853;28;20043;-72
2024/01/29 10:56:09;;;;;;;7.07;5.28;;;;;;;;;;4976920;28;20030;-72
2024/01/29 10:58:36;;;;;;;8.80;5.28;;;;;;;;;;4976825;28;20038;-71
2024/01/29 11:01:03;;;;;;;8.52;5.18;;;;;;;;;;4976735;28;20521;-71
2024/01/29 11:03:29;;;;;;;6.60;5.13;;;;;;;;;;4976775;28;20109;-71
2024/01/29 11:06:23;;;;;;;6.88;5.43;;;;;;;;;;4976743;28;20026;-71
2024/01/29 11:08:55;;;;;;;6.50;4.90;;;;;;;;;;4976717;28;20155;-71
2024/01/29 11:11:23;;;;;;;6.30;4.93;;;;;;;;;;4976721;28;20029;-71
2024/01/29 11:13:49;;;;;;;7.05;4.95;;;;;;;;;;4976435;28;20049;-72
2024/01/29 11:16:15;;;;;;;6.88;5.13;;;;;;;;;;4976817;28;20038;-72
2024/01/29 11:18:42;;;;;;;6.53;5.03;;;;;;;;;;4976502;28;20019;-72
2024/01/29 11:21:11;;;;;;;5.97;4.90;;;;;;;;;;4976451;28;20031;-72
2024/01/29 11:23:43;;;;;;;6.53;5.00;;;;;;;;;;4976367;28;20523;-72
2024/01/29 11:26:14;;;;;;;6.80;5.03;;;;;;;;;;4976346;28;20117;-72
2024/01/29 11:28:39;;;;;;;5.90;4.78;;;;;;;;;;4976329;28;20027;-72
2024/01/29 11:31:12;;;;;;;7.18;5.13;;;;;;;;;;4975719;28;20033;-72
2024/01/29 11:33:38;;;;;;;6.13;4.90;;;;;;;;;;4976083;28;20606;-72
2024/01/29 11:36:12;;;;;;;5.43;4.70;;;;;;;;;;4975755;28;20701;-71
2024/01/29 11:38:37;;;;;;;5.93;4.97;;;;;;;;;;4976214;28;20030;-71
2024/01/29 11:41:03;;;;;;;6.75;5.13;;;;;;;;;;4976375;28;20523;-72
2024/01/29 11:43:29;;;;;;;6.32;4.95;;;;;;;;;;4976054;28;20504;-73
2024/01/29 11:45:55;;;;;;;6.43;4.80;;;;;;;;;;4975950;28;20023;-72
2024/01/29 11:48:25;;;;;;;7.38;5.35;;;;;;;;;;4976229;28;20033;-72
2024/01/29 11:50:53;;;;;;;6.03;4.65;;;;;;;;;;4973274;28;20097;-74
2024/01/29 11:53:20;;;;;;;6.45;4.85;;;;;;;;;;4971261;28;20031;-72
2024/01/29 11:55:47;;;;;;;6.90;5.20;;;;;;;;;;4970021;28;20027;-72
2024/01/29 11:58:14;;;;;;;6.72;4.80;;;;;;;;;;4971058;28;20022;-71
2024/01/29 12:00:43;;;;;;;5.80;4.78;;;;;;;;;;4971375;28;20035;-74
2024/01/29 12:03:22;;;;;;;6.43;4.90;;;;;;;;;;4970089;28;20174;-73
2024/01/29 12:05:49;;;;;;;6.32;4.70;;;;;;;;;;4970249;28;20045;-74
2024/01/29 12:08:16;;;;;;;5.40;4.57;;;;;;;;;;4971207;28;20479;-71
2024/01/29 12:10:46;;;;;;;5.10;4.43;;;;;;;;;;4970938;28;20110;-72
2024/01/29 12:13:18;;;;;;;6.13;4.97;;;;;;;;;;4969555;28;20026;-72
2024/01/29 12:15:47;;;;;;;5.30;4.53;;;;;;;;;;4971130;28;20166;-72
2024/01/29 12:18:19;;;;;;;8.50;5.55;;;;;;;;;;4970739;28;20023;-74
2024/01/29 12:20:47;;;;;;;7.03;4.50;;;;;;;;;;4969626;28;20147;-72
2024/01/29 12:23:13;;;;;;;6.20;4.68;;;;;;;;;;4971068;28;20022;-76
2024/01/29 12:25:41;;;;;;;7.43;4.95;;;;;;;;;;4969335;28;20467;-74
2024/01/29 12:28:09;;;;;;;6.82;4.60;;;;;;;;;;4971955;28;20373;-70
2024/01/29 12:30:36;;;;;;;6.15;4.55;;;;;;;;;;4976079;28;20030;-71
2024/01/29 12:33:02;;;;;;;6.55;4.82;;;;;;;;;;4973513;28;20526;-73
2024/01/29 12:35:29;;;;;;;7.15;4.60;;;;;;;;;;4975077;28;20047;-67
2024/01/29 12:38:08;;;;;;;8.38;4.55;;;;;;;;;;4975098;28;20034;-74
2024/01/29 12:40:35;;;;;;;6.40;4.40;;;;;;;;;;4974954;28;20046;-76
2024/01/29 12:43:05;;;;;;;9.30;4.65;;;;;;;;;;4973341;28;20023;-75
2024/01/29 12:45:34;;;;;;;8.15;4.22;;;;;;;;;;4973286;28;20494;-76
2024/01/29 12:48:17;;;;;;;9.38;4.60;;;;;;;;;;4974156;28;20062;-76
2024/01/29 12:50:42;;;;;;;10.10;4.72;;;;;;;;;;4973420;28;20102;-75
2024/01/29 12:53:12;;;;;;;5.32;4.45;;;;;;;;;;4973535;28;20470;-75
2024/01/29 12:55:42;;;;;;;5.93;4.53;;;;;;;;;;4974674;28;20027;-75
2024/01/29 12:58:07;;;;;;;5.70;4.47;;;;;;;;;;4974607;28;20023;-76
2024/01/29 13:00:34;;;;;;;10.93;4.80;;;;;;;;;;4974591;28;20133;-76
2024/01/29 13:03:00;;;;;;;9.85;4.55;;;;;;;;;;4974512;28;20027;-76
2024/01/29 13:05:25;;;;;;;7.95;4.65;;;;;;;;;;4974498;28;20022;-75
2024/01/29 13:07:51;;;;;;;5.40;4.55;;;;;;;;;;4974478;28;20027;-76
2024/01/29 13:10:17;;;;;;;7.93;4.90;;;;;;;;;;4974410;28;20073;-75
2024/01/29 13:12:42;;;;;;;10.73;5.03;;;;;;;;;;4974368;28;20469;-75
2024/01/29 13:15:11;;;;;;;5.70;4.18;;;;;;;;;;4974290;28;20043;-75
2024/01/29 13:17:39;;;;;;;5.70;4.53;;;;;;;;;;4974365;28;20460;-75
2024/01/29 13:20:10;;;;;;;6.63;4.50;;;;;;;;;;4974217;28;20476;-75
2024/01/29 13:22:36;;;;;;;5.63;4.30;;;;;;;;;;4973814;28;20030;-75
2024/01/29 13:25:01;;;;;;;7.93;4.47;;;;;;;;;;4973819;28;20053;-76
2024/01/29 13:27:28;;;;;;;7.80;4.55;;;;;;;;;;4975464;28;20165;-76
2024/01/29 13:29:53;;;;;;;7.00;4.88;;;;;;;;;;4975426;28;20046;-76
2024/01/29 13:32:19;;;;;;;7.25;4.40;;;;;;;;;;4974826;28;20468;-76
2024/01/29 13:34:44;;;;;;;5.80;4.57;;;;;;;;;;4974605;28;20523;-76
2024/01/29 13:37:10;;;;;;;6.43;4.47;;;;;;;;;;4974515;28;20538;-76
2024/01/29 13:39:35;;;;;;;6.57;4.57;;;;;;;;;;4974205;28;20023;-76
2024/01/29 13:42:01;;;;;;;5.10;4.30;;;;;;;;;;4974140;28;20522;-76
2024/01/29 13:44:27;;;;;;;6.03;4.25;;;;;;;;;;4974132;28;20387;-76
2024/01/29 13:46:52;;;;;;;6.22;4.55;;;;;;;;;;4974346;28;20386;-76
2024/01/29 13:49:18;;;;;;;5.07;4.30;;;;;;;;;;4974223;28;20475;-75
2024/01/29 13:51:43;;;;;;;6.88;4.40;;;;;;;;;;4974397;28;20022;-74
2024/01/29 13:54:09;;;;;;;6.32;4.40;;;;;;;;;;4975173;28;20042;-76
2024/01/29 13:56:34;;;;;;;6.82;4.50;;;;;;;;;;4974811;28;20113;-72
2024/01/29 13:59:00;;;;;;;6.28;4.45;;;;;;;;;;4974871;28;20031;-73
2024/01/29 14:01:25;;;;;;;6.22;4.32;;;;;;;;;;4975212;28;20039;-75
2024/01/29 14:03:53;;;;;;;4.65;4.03;;;;;;;;;;4975100;28;20395;-75
2024/01/29 14:06:18;;;;;;;6.20;4.15;;;;;;;;;;4972748;28;20027;-75
2024/01/29 14:08:44;;;;;;;7.32;4.70;;;;;;;;;;4974123;28;20066;-75
2024/01/29 14:11:09;;;;;;;5.93;4.30;;;;;;;;;;4973661;28;20027;-75
2024/01/29 14:13:36;;;;;;;4.93;4.03;;;;;;;;;;4973565;28;20396;-74
2024/01/29 14:16:02;;;;;;;4.93;4.28;;;;;;;;;;4973734;28;20368;-74
2024/01/29 14:18:34;;;;;;;4.53;3.92;;;;;;;;;;4973600;28;20038;-74
2024/01/29 14:21:02;;;;;;;6.18;4.57;;;;;;;;;;4973740;28;20037;-73
2024/01/29 14:23:29;;;;;;;4.82;4.00;;;;;;;;;;4973580;28;20048;-73
2024/01/29 14:25:54;;;;;;;5.63;4.38;;;;;;;;;;4973553;28;20022;-73
2024/01/29 14:28:20;;;;;;;4.43;4.03;;;;;;;;;;4973563;28;20026;-72
2024/01/29 14:30:46;;;;;;;6.53;4.28;;;;;;;;;;4974264;28;20497;-75
2024/01/29 14:33:11;;;;;;;5.40;4.38;;;;;;;;;;4973811;28;20035;-74
2024/01/29 14:35:38;;;;;;;4.85;4.00;;;;;;;;;;4974812;28;20045;-76
2024/01/29 14:38:07;;;;;;;4.40;3.97;;;;;;;;;;4973613;28;20029;-76